Home > Products > Valid Products > TAF

000
FTUS42 KTBW 241400 AAA
TAFTPA
TAF AMD
KTPA 241450Z 2415/2512 02009KT P6SM FEW040 FEW250
     FM250000 02005KT P6SM SKC=



000
FTUS42 KTBW 241100
TAFTPA
TAF
KTPA 241124Z 2412/2512 03008KT P6SM FEW040
     FM250000 02005KT P6SM SKC=



000
FTUS42 KTBW 241100
TAFFMY
TAF
KFMY 241124Z 2412/2512 03010KT P6SM SCT040
     FM241500 05014G20KT P6SM SCT040 SCT250
     FM250000 02008KT P6SM FEW250=



000
FTUS42 KTBW 241100
TAFPIE
TAF
KPIE 241124Z 2412/2512 04010KT P6SM FEW040
     FM250100 02008KT P6SM FEW250=



000
FTUS42 KTBW 241100
TAFSRQ
TAF
KSRQ 241124Z 2412/2512 04007KT P6SM SKC
     FM241400 04011KT P6SM FEW040 FEW250
     FM250100 02006KT P6SM FEW250=



000
FTUS42 KTBW 241100
TAFRSW
TAF
KRSW 241124Z 2412/2512 03009KT P6SM SCT040
     FM241500 05014G20KT P6SM SCT040 SCT250
     FM250000 02007KT P6SM FEW250=



000
FTUS42 KTBW 240800 AAA
TAFTPA
TAF AMD
KTPA 240856Z 2409/2506 05005KT P6SM SKC
     FM241500 03009KT P6SM FEW250
     FM250000 36005KT P6SM SKC=



000
FTUS42 KTBW 240500
TAFFMY
TAF
KFMY 240524Z 2406/2506 05008KT P6SM SCT250
     FM241400 05013G20KT P6SM BKN035
     FM242300 03011KT P6SM SCT040
     FM250300 01010KT P6SM FEW040 SCT250=



000
FTUS42 KTBW 240500
TAFSRQ
TAF
KSRQ 240524Z 2406/2506 07007KT P6SM FEW250
     FM241500 03012KT P6SM FEW040
     FM250100 01007KT P6SM FEW250=



000
FTUS42 KTBW 240500
TAFPIE
TAF
KPIE 240524Z 2406/2506 06009KT P6SM SKC
     FM241600 03009KT P6SM FEW250
     FM250000 01008KT P6SM SKC=



000
FTUS42 KTBW 240500
TAFRSW
TAF
KRSW 240524Z 2406/2506 04007KT P6SM SCT050 BKN250
     FM241400 04013G20KT P6SM BKN035
     FM242300 04011KT P6SM SCT040
     FM250300 01009KT P6SM FEW040 SCT250=



000
FTUS42 KTBW 240500
TAFTPA
TAF
KTPA 240524Z 2406/2506 05005KT P6SM SKC
     FM241500 03009KT P6SM FEW250
     FM250000 36005KT P6SM SKC=



000
FTUS42 KTBW 240200 AAA
TAFTPA
TAF AMD
KTPA 240257Z 2403/2424 05006KT P6SM SKC
     FM241400 05008KT P6SM FEW250
     FM241800 02007KT P6SM FEW040 SCT250=



000
FTUS42 KTBW 240200 AAA
TAFTPA
TAF AMD
KTPA 240257Z 2403/2424 05006KT P6SM SKC
     FM241400 05008KT P6SM FEW250
     FM241800 02007KT P6SM FEW040 SCT250=



000
FTUS42 KTBW 232300
TAFFMY
TAF
KFMY 232339Z 2400/2424 07008KT P6SM FEW050 SCT250
     FM240600 04007KT P6SM SCT250
     FM241400 04012G18KT P6SM FEW035 SCT250
     FM241700 04012G18KT P6SM SCT040 SCT250
     FM242200 04008KT P6SM SCT050 SCT250=



000
FTUS42 KTBW 232300
TAFSRQ
TAF
KSRQ 232339Z 2400/2424 05007KT P6SM SKC
     FM241400 05010KT P6SM FEW250
     FM241800 03010KT P6SM FEW040 SCT250=



000
FTUS42 KTBW 232300
TAFTPA
TAF
KTPA 232339Z 2400/2424 05004KT P6SM SKC
     FM241400 05008KT P6SM FEW250
     FM241800 02007KT P6SM FEW040 SCT250=



000
FTUS42 KTBW 232300
TAFPIE
TAF
KPIE 232339Z 2400/2424 05008KT P6SM SKC
     FM241400 05008KT P6SM FEW250
     FM241800 02007KT P6SM FEW040 SCT250=



000
FTUS42 KTBW 232300
TAFRSW
TAF
KRSW 232339Z 2400/2424 07008KT P6SM FEW050 SCT250
     FM240600 04007KT P6SM SCT250
     FM241400 04012G18KT P6SM FEW035 SCT250
     FM241700 04012G18KT P6SM SCT040 SCT250
     FM242200 04008KT P6SM SCT050 SCT250=



000
FTUS42 KTBW 232100 AAA
TAFTPA
TAF AMD
KTPA 232100Z 2321/2418 05006KT P6SM SKC
     FM240000 04005KT P6SM FEW250
     FM241400 03008KT P6SM FEW250=



000
FTUS42 KTBW 231700
TAFRSW
TAF
KRSW 231736Z 2318/2418 07014KT P6SM FEW030 BKN050
     FM240000 04009KT P6SM SCT050 SCT250
     FM241400 05014KT P6SM FEW035 SCT250=



000
FTUS42 KTBW 231700
TAFTPA
TAF
KTPA 231736Z 2318/2418 04008KT P6SM FEW040
     FM240000 04005KT P6SM FEW250
     FM241400 03008KT P6SM FEW250=



000
FTUS42 KTBW 231700
TAFFMY
TAF
KFMY 231736Z 2318/2418 06013KT P6SM SCT035
     FM240000 05009KT P6SM SCT250
     FM241400 04013KT P6SM FEW035 SCT250=



000
FTUS42 KTBW 231700
TAFPIE
TAF
KPIE 231736Z 2318/2418 05008KT P6SM FEW250=



000
FTUS42 KTBW 231700
TAFSRQ
TAF
KSRQ 231736Z 2318/2418 07011KT P6SM FEW040
     FM240000 05007KT P6SM FEW250
     FM241400 04010KT P6SM FEW250=



000
FTUS42 KTBW 231500 AAA
TAFTPA
TAF AMD
KTPA 231500Z 2315/2412 05009G18KT P6SM FEW040
     FM240000 06005KT P6SM FEW250=



000
FTUS42 KTBW 231100
TAFFMY
TAF
KFMY 231138Z 2312/2412 05008KT P6SM FEW025 BKN250
     FM231500 07011G19KT P6SM SCT040 BKN250
     FM240000 05009KT P6SM SCT040 BKN250=



000
FTUS42 KTBW 231100
TAFPIE
TAF
KPIE 231138Z 2312/2412 05011G18KT P6SM FEW250
     FM240000 06009KT P6SM SKC=



000
FTUS42 KTBW 231100
TAFSRQ
TAF
KSRQ 231138Z 2312/2412 07011KT P6SM SCT040 SCT250
     FM240000 06008KT P6SM FEW250=



000
FTUS42 KTBW 231100
TAFTPA
TAF
KTPA 231138Z 2312/2412 05008KT P6SM FEW250
     FM240000 06005KT P6SM FEW250=



000
FTUS42 KTBW 231100
TAFRSW
TAF
KRSW 231138Z 2312/2412 04007KT P6SM FEW025 BKN050
     FM231500 07012G19KT P6SM SCT040 BKN250
     FM240000 05009KT P6SM SCT040 BKN100=



000
FTUS42 KTBW 230800 AAA
TAFTPA
TAF AMD
KTPA 230851Z 2309/2406 05007G14KT P6SM SCT250=



000
FTUS42 KTBW 230500
TAFFMY
TAF
KFMY 230523Z 2306/2406 06005KT P6SM SCT025
      TEMPO 2306/2309 BKN025
     FM231300 05009KT P6SM SCT030 BKN250
     FM231600 07013KT P6SM BKN040 BKN250
     FM232300 06009KT P6SM SCT040 BKN250=



000
FTUS42 KTBW 230500
TAFPIE
TAF
KPIE 230523Z 2306/2406 05010KT P6SM BKN250
     FM231800 06006KT P6SM SCT250
     FM240300 06010KT P6SM SKC=



000
FTUS42 KTBW 230500
TAFSRQ
TAF
KSRQ 230523Z 2306/2406 06010KT P6SM SCT250=



000
FTUS42 KTBW 230500
TAFTPA
TAF
KTPA 230523Z 2306/2406 05007KT P6SM SCT250=



000
FTUS42 KTBW 230500
TAFRSW
TAF
KRSW 230523Z 2306/2406 06005KT P6SM SCT025
      TEMPO 2306/2309 BKN025
     FM231300 04009KT P6SM SCT030 BKN200
     FM231500 06013KT P6SM BKN040 BKN250
     FM240000 07010KT P6SM SCT040 BKN250=



000
FTUS42 KTBW 230300 AAA
TAFTPA
TAF AMD
KTPA 230309Z 2303/2324 05006KT P6SM BKN250
     FM231500 06009KT P6SM FEW250=



000
FTUS42 KTBW 222300
TAFRSW
TAF
KRSW 222325Z 2300/2324 VRB04KT P6SM VCSH SCT100 BKN250
     FM230200 05005KT P6SM SCT250
     FM231200 04007KT P6SM FEW250
     FM231800 07012KT P6SM FEW250=



000
FTUS42 KTBW 222300
TAFFMY
TAF
KFMY 222325Z 2300/2324 VRB04KT P6SM VCSH SCT040 BKN080 OVC250
     FM230200 05005KT P6SM SCT250
     FM231200 05010KT P6SM FEW250
     FM231800 08011KT P6SM FEW250=



000
FTUS42 KTBW 222300
TAFSRQ
TAF
KSRQ 222325Z 2300/2324 35006KT P6SM BKN250
     FM230200 04007KT P6SM SCT250
     FM231500 07011KT P6SM FEW250
     FM232200 06008KT P6SM FEW250=



000
FTUS42 KTBW 222300
TAFPIE
TAF
KPIE 222325Z 2300/2324 01006KT P6SM BKN250
     FM230300 05008KT P6SM SCT250
     FM231500 06009KT P6SM FEW250=



000
FTUS42 KTBW 222300
TAFTPA
TAF
KTPA 222325Z 2300/2324 01004KT P6SM BKN250
     FM230200 05006KT P6SM SCT250
     FM231500 06009KT P6SM FEW250=



000
FTUS42 KTBW 222100 AAA
TAFTPA
TAF AMD
KTPA 222102Z 2221/2318 26007KT P6SM SCT250
     FM230000 03007KT P6SM FEW250
     FM231400 06009KT P6SM SCT250=



000
FTUS42 KTBW 221700
TAFTPA
TAF
KTPA 221730Z 2218/2318 02005KT P6SM FEW100 SCT250
     FM230100 03009KT P6SM FEW250
     FM231400 05010KT P6SM SCT250=



000
FTUS42 KTBW 221700
TAFSRQ
TAF
KSRQ 221730Z 2218/2318 02005KT P6SM FEW100 SCT250
     FM230200 05009KT P6SM SCT250
     FM230800 05013KT P6SM FEW035 SCT250=



000
FTUS42 KTBW 221700
TAFFMY
TAF
KFMY 221730Z 2218/2318 VRB04KT P6SM VCSH SCT020 BKN080
     FM222200 VRB06KT P6SM VCTS SCT030CB BKN090
     FM230500 04008KT P6SM SCT015 BKN030
     FM231300 04012KT P6SM SCT025 BKN035=



000
FTUS42 KTBW 221700
TAFPIE
TAF
KPIE 221730Z 2218/2318 04005KT P6SM FEW100 SCT250
     FM230000 02009KT P6SM FEW250
     FM230300 06011KT P6SM FEW250=



000
FTUS42 KTBW 221700
TAFRSW
TAF
KRSW 221730Z 2218/2318 08006KT P6SM VCSH SCT025 BKN080
     FM222200 VRB06KT P6SM VCTS SCT035CB BKN090
     FM230500 04007KT P6SM SCT015 BKN030
     FM231400 06012KT P6SM SCT025 BKN035=



000
FTUS42 KTBW 221700
TAFPIE
TAF
KPIE 221730Z 2218/2318 04005KT P6SM FEW100 SCT250
     FM230000 02009KT P6SM FEW250
     FM230300 06011KT P6SM FEW250=



000
FTUS42 KTBW 221700
TAFFMY
TAF
KFMY 221730Z 2218/2318 VRB04KT P6SM VCSH SCT020 BKN080
     FM222200 VRB06KT P6SM VCTS SCT030CB BKN090
     FM230500 04008KT P6SM SCT015 BKN030
     FM231300 04012KT P6SM SCT025 BKN035=



000
FTUS42 KTBW 221700
TAFTPA
TAF
KTPA 221730Z 2218/2318 02005KT P6SM FEW100 SCT250
     FM230100 03009KT P6SM FEW250
     FM231400 05010KT P6SM SCT250=



000
FTUS42 KTBW 221700
TAFRSW
TAF
KRSW 221730Z 2218/2318 08006KT P6SM VCSH SCT025 BKN080
     FM222200 VRB06KT P6SM VCTS SCT035CB BKN090
     FM230500 04007KT P6SM SCT015 BKN030
     FM231400 06012KT P6SM SCT025 BKN035=



000
FTUS42 KTBW 221700
TAFSRQ
TAF
KSRQ 221730Z 2218/2318 02005KT P6SM FEW100 SCT250
     FM230200 05009KT P6SM SCT250
     FM230800 05013KT P6SM FEW035 SCT250=



000
FTUS42 KTBW 221400 AAA
TAFTPA
TAF AMD
KTPA 221452Z 2215/2312 04007KT P6SM FEW100 SCT250
     FM222200 01005KT P6SM SCT250
     FM230200 04008KT P6SM FEW250=



000
FTUS42 KTBW 221100
TAFRSW
TAF
KRSW 221130Z 2212/2312 VRB03KT P6SM SCT100 OVC250
     FM221500 08005KT P6SM BKN100 OVC250
     FM221800 20005KT P6SM VCTS SCT035CB BKN050
     FM222100 15004KT P6SM SCT035 BKN050
     FM230300 07004KT P6SM SCT030 BKN200=



000
FTUS42 KTBW 221100
TAFSRQ
TAF
KSRQ 221130Z 2212/2312 05007KT P6SM BKN250=



000
FTUS42 KTBW 221100
TAFFMY
TAF
KFMY 221130Z 2212/2312 VRB03KT P6SM SCT100 OVC250
     FM221500 08005KT P6SM BKN100 OVC250
     FM221800 20005KT P6SM VCTS SCT035CB BKN050
     FM222100 15004KT P6SM SCT035 BKN050
     FM230300 07004KT P6SM SCT030 BKN200=



000
FTUS42 KTBW 221100
TAFTPA
TAF
KTPA 221130Z 2212/2312 VRB03KT P6SM BKN250
     FM221500 03007KT P6SM SCT250=



000
FTUS42 KTBW 221100
TAFPIE
TAF
KPIE 221130Z 2212/2312 03008KT P6SM BKN250
     FM230300 05010KT P6SM SCT250=



000
FTUS42 KTBW 220900 AAA
TAFTPA
TAF AMD
KTPA 220904Z 2209/2306 VRB03KT P6SM BKN250
     FM221500 03006KT P6SM BKN250=



000
FTUS42 KTBW 220500 RRA
TAFRSW
TAF
KRSW 220541Z 2206/2306 VRB03KT P6SM SCT100 OVC250
     FM221500 08005KT P6SM BKN100 OVC250
     FM221800 20005KT P6SM VCTS SCT035CB BKN050
     FM222100 15004KT P6SM SCT035 BKN050
     FM230300 07004KT P6SM SCT030 BKN200=



000
FTUS42 KTBW 220500 RRA
TAFPIE
TAF
KPIE 220541Z 2206/2306 01004KT P6SM BKN250
     FM221500 04007KT P6SM BKN250
     FM230300 05010KT P6SM SCT250=



000
FTUS42 KTBW 220500 RRA
TAFTPA
TAF
KTPA 220541Z 2206/2306 VRB03KT P6SM BKN250
     FM221500 03006KT P6SM BKN250=



000
FTUS42 KTBW 220500 RRA
TAFFMY
TAF
KFMY 220541Z 2206/2306 VRB03KT P6SM SCT100 OVC250
     FM221500 08005KT P6SM BKN100 OVC250
     FM221800 20005KT P6SM VCTS SCT035CB BKN050
     FM222100 15004KT P6SM SCT035 BKN050
     FM230300 07004KT P6SM SCT030 BKN200=



000
FTUS42 KTBW 220500 RRA
TAFSRQ
TAF
KSRQ 220541Z 2206/2306 VRB03KT P6SM BKN250
     FM221400 05006KT P6SM BKN250=



000
FTUS42 KTBW 220500 RRA
TAFSRQ
TAF
KSRQ 220541Z 2206/2306 VRB03KT P6SM BKN250
     FM221400 05006KT P6SM BKN250=



000
FTUS42 KTBW 220500 RRA
TAFPIE
TAF
KPIE 220541Z 2206/2306 01004KT P6SM BKN250
     FM221500 04007KT P6SM BKN250
     FM230300 05010KT P6SM SCT250=



000
FTUS42 KTBW 220500 RRA
TAFTPA
TAF
KTPA 220541Z 2206/2306 VRB03KT P6SM BKN250
     FM221500 03006KT P6SM BKN250=



000
FTUS42 KTBW 220500 RRA
TAFFMY
TAF
KFMY 220541Z 2206/2306 VRB03KT P6SM SCT100 OVC250
     FM221500 08005KT P6SM BKN100 OVC250
     FM221800 20005KT P6SM VCTS SCT035CB BKN050
     FM222100 15004KT P6SM SCT035 BKN050
     FM230300 07004KT P6SM SCT030 BKN200=



000
FTUS42 KTBW 220500 RRA
TAFRSW
TAF
KRSW 220541Z 2206/2306 VRB03KT P6SM SCT100 OVC250
     FM221500 08005KT P6SM BKN100 OVC250
     FM221800 20005KT P6SM VCTS SCT035CB BKN050
     FM222100 15004KT P6SM SCT035 BKN050
     FM230300 07004KT P6SM SCT030 BKN200=



000
FTUS42 KTBW 220300 AAA
TAFTPA
TAF AMD
KTPA 220301Z 2203/2224 36003KT P6SM BKN250
     FM221500 05006KT P6SM FEW250
     FM221800 32006KT P6SM FEW040 SCT250=



000
FTUS42 KTBW 212300
TAFRSW
TAF
KRSW 212336Z 2200/2224 VRB03KT P6SM SCT030 BKN100 OVC250
     FM220600 VRB03KT P6SM FEW030 BKN250
     FM220900 00000KT P6SM SCT250
     FM221500 04004KT P6SM SCT250
     FM221800 12005KT P6SM VCSH SCT040 SCT250=



000
FTUS42 KTBW 212300
TAFFMY
TAF
KFMY 212336Z 2200/2224 VRB03KT P6SM SCT030 BKN100 OVC250
     FM220600 VRB03KT P6SM FEW030 BKN250
     FM220900 00000KT P6SM SCT250
     FM221500 10004KT P6SM SCT250
     FM221800 11005KT P6SM VCSH SCT040 SCT250=



000
FTUS42 KTBW 212300
TAFSRQ
TAF
KSRQ 212336Z 2200/2224 VRB03KT P6SM BKN250
     FM221500 05006KT P6SM SCT250
     FM221800 33006KT P6SM FEW040 SCT250
     FM222300 34007KT P6SM FEW250=



000
FTUS42 KTBW 212300
TAFTPA
TAF
KTPA 212336Z 2200/2224 VRB03KT P6SM BKN250
     FM220900 VRB03KT P6SM SCT250
     FM221500 05006KT P6SM FEW250
     FM221800 32006KT P6SM FEW040 SCT250=



000
FTUS42 KTBW 212300
TAFPIE
TAF
KPIE 212336Z 2200/2224 VRB03KT P6SM BKN250
     FM220900 VRB03KT P6SM SCT250
     FM221500 04006KT P6SM SCT250
     FM221800 02006KT P6SM FEW040 SCT250=



000
FTUS42 KTBW 212100 AAA
TAFTPA
TAF AMD
KTPA 212100Z 2121/2218 27006KT P6SM FEW050 OVC250
     FM212300 VRB03KT P6SM FEW050 BKN250
     FM221400 04006KT P6SM SCT250=



000
FTUS42 KTBW 211900 CCA
TAFRSW
TAF COR
KRSW 211942Z 2118/2218 VRB03KT P6SM VCTS SCT030CB BKN090
      TEMPO 2118/2120 VRB15G25KT 3SM TSRA BKN025CB
     FM220000 00000KT P6SM VCTS SCT035CB BKN250
     FM220600 00000KT P6SM BKN100 BKN250
     FM221400 VRB06KT P6SM VCSH SCT030 BKN100=



000
FTUS42 KTBW 211900 CCA
TAFFMY
TAF COR
KFMY 211941Z 2118/2218 VRB03KT P6SM VCTS SCT035CB BKN090
      TEMPO 2118/2120 VRB15G25KT 3SM TSRA BKN025CB
     FM220000 00000KT P6SM VCTS SCT035CB BKN250
     FM220600 00000KT P6SM BKN110 BKN250
     FM221400 VRB06KT P6SM VCSH SCT030 BKN100=



000
FTUS42 KTBW 211700
TAFTPA
TAF
KTPA 211739Z 2118/2218 25006KT P6SM SCT080 BKN250
     FM220000 VRB03KT P6SM FEW100 BKN250
     FM221400 03006KT P6SM SCT250=



000
FTUS42 KTBW 211700
TAFPIE
TAF
KPIE 211739Z 2118/2218 34004KT P6SM SCT060 BKN250
     FM220000 VRB05KT P6SM FEW100 BKN250
     FM221500 04006KT P6SM SCT250=



000
FTUS42 KTBW 211700
TAFRSW
TAF
KRSW 211739Z 2118/2218 VRB03KT P6SM VCTS SCT030CB BKN090
      TEMPO 2118/2119 VRB15G25KT 3SM TSRA BKN025CB
     FM220000 00000KT P6SM VCTS SCT035CB BKN250
     FM220600 00000KT P6SM BKN100 BKN250
     FM221400 VRB06KT P6SM VCSH SCT030 BKN100=



000
FTUS42 KTBW 211700
TAFSRQ
TAF
KSRQ 211739Z 2118/2218 28006KT P6SM BKN150 BKN250
     FM220000 VRB06KT P6SM FEW100 BKN250
     FM221500 04007KT P6SM FEW250=



000
FTUS42 KTBW 211700
TAFFMY
TAF
KFMY 211739Z 2118/2218 VRB03KT P6SM VCTS SCT035CB BKN090
      TEMPO 2118/2119 VRB15G25KT 3SM TSRA BKN025CB
     FM220000 00000KT P6SM VCTS SCT035CB BKN250
     FM220600 00000KT P6SM BKN110 BKN250
     FM221400 VRB06KT P6SM VCSH SCT030 BKN100=



    US Dept of Commerce
    National Oceanic and Atmospheric Administration
    National Weather Service
    1325 East West Highway
    Silver Spring, MD 20910
    Page Author: NWS Internet Services Team
Disclaimer
Information Quality
Credits
Glossary
Privacy Policy
Freedom of Information Act (FOIA)
About Us
Career Opportunities